Aérodrome :
LOGIN :

S'inscrire | Disclaimer

   EN    FR    IT 

 










Légende :    VFR   VFR Marginal   IFR   IFR Intensif   IFR Très Intensif
Visi : 
Plafond : 
>= 8 km
>= 3000ft
5 à 8 km
1000 à 3000 ft
1500m à 5 km
500 à 1000 ft
800 à 1500m
200 à 500 ft
< 800m
< 200 ft
Symboles :   Orages  Brouillard  Fortes neiges  Fortes précipitations  Vent > 20 kt
SIGMETs :   Divers  Orages  Givrage  Turbulence  Onde Orograph.  Cendres Volcan.







- Altitude de l'aérodrome : 640 ft
- Code IATA : AOC


EDAC - Altenburg-Nobitz

DERNIER METAR :
  • 190120Z AUTO 22005KT 9999 // NCD 00/M02 Q1022

METARs EXPIRÉS :
  • 190050Z AUTO 22007KT 9999 // NCD 01/M02 Q1022
  • 190020Z AUTO 22008KT 9999 // NCD 01/M02 Q1022
  • 182350Z AUTO 21007KT 9999 // FEW060/// 02/M01 Q1021
  • 182320Z AUTO 21007KT 9999 // BKN078/// 02/M01 Q1021
  • 182250Z AUTO 22006KT 9999 // FEW050/// BKN077/// 02/M01 Q1021

TAF TAF EDAC
Valide du 18 à 18h jusqu'au 19 à 03h UTC


181700Z 1818/1903 24010KT CAVOK
Pas de NOTAMs connus pour ce terrain.



MET'MAP, la Météo Aéronautique d'un coup d'oeil ! - Copyright ORBIFLY Décembre 2007 - Disclaimer

ORBIFLY MET'MAP TEAM :

Programmation & Développement : Alexandra Zaïnal
Conception & Développement : Baudouin d'Aumeries
Co-Programmation & Développement : Marc-Olivier Méhu
Soutien technique & logistique : Manuel Goepfert

Contact : metmap@orbifly.com




SOURCES & CREDITS :

   NOAA